Time;durP1;ratioP1;P1;durP2;ratioP2;P2;SDS_P1;SDS_P2;PMS_P1;PMS_P2;Temp;Humidity;BMP_temperature;BMP_pressure;BME280_temperature;BME280_humidity;BME280_pressure;Samples;Min_cycle;Max_cycle;Signal;HPM_P1;HPM_P2
2022/02/19 00:01:38;;;;;;;9.77;2.90;;;;;;;;;;4997736;28;20421;-61
2022/02/19 00:04:04;;;;;;;11.35;2.63;;;;;;;;;;4997735;28;20094;-64
2022/02/19 00:06:29;;;;;;;8.75;2.45;;;;;;;;;;4998097;28;20075;-62
2022/02/19 00:08:55;;;;;;;13.70;3.08;;;;;;;;;;4997534;28;20380;-63
2022/02/19 00:11:20;;;;;;;9.80;2.50;;;;;;;;;;4998213;28;20323;-61
2022/02/19 00:13:45;;;;;;;8.10;2.57;;;;;;;;;;4997374;28;20145;-63
2022/02/19 00:16:10;;;;;;;12.57;3.57;;;;;;;;;;4997133;28;20128;-63
2022/02/19 00:18:35;;;;;;;6.77;2.03;;;;;;;;;;4997846;28;20067;-62
2022/02/19 00:21:02;;;;;;;9.13;2.27;;;;;;;;;;4997423;28;20116;-64
2022/02/19 00:23:29;;;;;;;9.63;2.50;;;;;;;;;;4996078;28;20066;-62
2022/02/19 00:25:55;;;;;;;8.68;2.17;;;;;;;;;;4998424;28;20090;-64
2022/02/19 00:28:20;;;;;;;15.70;3.07;;;;;;;;;;5004118;28;20096;-62
2022/02/19 00:30:46;;;;;;;9.00;2.60;;;;;;;;;;4997895;28;20345;-64
2022/02/19 00:33:11;;;;;;;14.13;2.70;;;;;;;;;;4998629;28;20510;-61
2022/02/19 00:35:36;;;;;;;9.03;2.00;;;;;;;;;;4998731;28;20606;-62
2022/02/19 00:38:01;;;;;;;10.17;2.50;;;;;;;;;;4986874;28;20682;-63
2022/02/19 00:40:26;;;;;;;10.13;2.70;;;;;;;;;;4998542;28;20114;-65
2022/02/19 00:42:52;;;;;;;11.37;2.63;;;;;;;;;;4983832;28;20464;-62
2022/02/19 00:45:17;;;;;;;6.77;2.00;;;;;;;;;;4998692;28;20688;-62
2022/02/19 00:47:42;;;;;;;9.63;2.67;;;;;;;;;;5015193;28;20346;-63
2022/02/19 00:50:08;;;;;;;13.10;2.30;;;;;;;;;;4988008;28;20066;-62
2022/02/19 00:52:34;;;;;;;9.90;2.08;;;;;;;;;;4998827;28;20514;-65
2022/02/19 00:54:59;;;;;;;8.38;1.98;;;;;;;;;;4988897;28;20174;-63
2022/02/19 00:57:24;;;;;;;8.67;2.07;;;;;;;;;;4995589;28;20098;-62
2022/02/19 00:59:49;;;;;;;10.40;2.43;;;;;;;;;;4989346;28;20098;-62
2022/02/19 01:02:14;;;;;;;7.40;2.40;;;;;;;;;;5015247;28;20076;-64
2022/02/19 01:04:40;;;;;;;13.27;2.87;;;;;;;;;;4985815;28;20109;-62
2022/02/19 01:07:05;;;;;;;13.00;2.67;;;;;;;;;;5005334;28;20718;-62
2022/02/19 01:09:30;;;;;;;10.07;2.67;;;;;;;;;;4984440;28;20288;-62
2022/02/19 01:11:55;;;;;;;9.77;2.67;;;;;;;;;;4995492;28;20102;-64
2022/02/19 01:14:20;;;;;;;9.17;2.30;;;;;;;;;;4995896;28;20067;-63
2022/02/19 01:16:46;;;;;;;11.63;2.80;;;;;;;;;;5009277;28;20128;-63
2022/02/19 01:19:11;;;;;;;11.67;2.23;;;;;;;;;;4986332;28;20532;-64
2022/02/19 01:21:36;;;;;;;9.93;2.60;;;;;;;;;;4996582;28;20780;-64
2022/02/19 01:24:01;;;;;;;11.77;2.40;;;;;;;;;;4995457;28;20488;-64
2022/02/19 01:26:28;;;;;;;7.53;2.00;;;;;;;;;;4998479;28;20451;-65
2022/02/19 01:28:53;;;;;;;10.02;2.30;;;;;;;;;;4992778;28;20344;-63
2022/02/19 01:31:18;;;;;;;6.83;2.10;;;;;;;;;;4998571;28;20168;-63
2022/02/19 01:33:43;;;;;;;10.43;2.47;;;;;;;;;;4984786;28;20851;-63
2022/02/19 01:36:08;;;;;;;12.50;2.77;;;;;;;;;;4998183;28;20345;-65
2022/02/19 01:38:34;;;;;;;10.83;3.00;;;;;;;;;;4994967;28;20075;-62
2022/02/19 01:40:59;;;;;;;13.00;2.30;;;;;;;;;;4995842;28;20528;-63
2022/02/19 01:43:24;;;;;;;9.27;2.50;;;;;;;;;;4985537;28;20416;-62
2022/02/19 01:45:49;;;;;;;12.47;2.90;;;;;;;;;;4998027;28;20173;-65
2022/02/19 01:48:15;;;;;;;10.43;2.97;;;;;;;;;;4999106;28;20345;-63
2022/02/19 01:50:40;;;;;;;13.77;3.05;;;;;;;;;;4987990;28;20342;-64
2022/02/19 01:53:06;;;;;;;11.90;2.97;;;;;;;;;;5007184;28;20112;-61
2022/02/19 01:55:31;;;;;;;8.30;2.13;;;;;;;;;;4994862;28;20249;-62
2022/02/19 01:57:57;;;;;;;9.77;2.72;;;;;;;;;;5011005;28;20086;-64
2022/02/19 02:00:22;;;;;;;15.13;2.88;;;;;;;;;;4994707;28;20114;-63
2022/02/19 02:02:47;;;;;;;9.87;2.87;;;;;;;;;;5003685;28;20531;-63
2022/02/19 02:05:12;;;;;;;9.73;2.17;;;;;;;;;;4990227;28;20866;-62
2022/02/19 02:07:38;;;;;;;10.77;2.47;;;;;;;;;;5003232;28;20074;-63
2022/02/19 02:10:03;;;;;;;11.53;2.93;;;;;;;;;;4989954;28;20070;-63
2022/02/19 02:12:28;;;;;;;10.13;2.67;;;;;;;;;;5008360;28;20106;-62
2022/02/19 02:14:53;;;;;;;10.40;2.37;;;;;;;;;;4996834;28;20137;-65
2022/02/19 02:17:19;;;;;;;13.20;2.93;;;;;;;;;;4986561;28;20342;-62
2022/02/19 02:19:44;;;;;;;8.73;2.43;;;;;;;;;;4989073;28;20097;-63
2022/02/19 02:22:09;;;;;;;6.70;2.10;;;;;;;;;;5008308;28;20152;-63
2022/02/19 02:24:35;;;;;;;10.73;2.63;;;;;;;;;;5002275;28;20107;-65
2022/02/19 02:27:02;;;;;;;8.82;2.40;;;;;;;;;;4978628;28;20090;-62
2022/02/19 02:29:27;;;;;;;11.35;2.00;;;;;;;;;;4985874;28;20094;-63
2022/02/19 02:31:53;;;;;;;9.53;2.80;;;;;;;;;;4986439;28;20103;-63
2022/02/19 02:34:20;;;;;;;9.07;2.20;;;;;;;;;;4990742;28;20097;-64
2022/02/19 02:36:46;;;;;;;9.65;2.20;;;;;;;;;;5013374;28;20098;-63
2022/02/19 02:39:11;;;;;;;8.02;2.47;;;;;;;;;;5009234;28;20430;-65
2022/02/19 02:41:36;;;;;;;8.30;2.17;;;;;;;;;;4983353;28;20102;-64
2022/02/19 02:44:02;;;;;;;10.37;2.43;;;;;;;;;;4966933;28;20367;-64
2022/02/19 02:46:27;;;;;;;7.65;1.90;;;;;;;;;;4983366;28;20395;-64
2022/02/19 02:48:52;;;;;;;9.47;2.07;;;;;;;;;;4982706;28;20099;-62
2022/02/19 02:51:18;;;;;;;9.17;2.50;;;;;;;;;;4982951;28;20413;-64
2022/02/19 02:53:43;;;;;;;9.50;2.10;;;;;;;;;;4982628;28;20109;-62
2022/02/19 02:56:08;;;;;;;11.30;2.80;;;;;;;;;;4994087;28;20345;-63
2022/02/19 02:58:33;;;;;;;9.97;2.77;;;;;;;;;;4971654;28;20313;-64
2022/02/19 03:00:58;;;;;;;6.93;2.27;;;;;;;;;;4982338;28;20360;-64
2022/02/19 03:03:24;;;;;;;8.87;2.30;;;;;;;;;;4970618;28;20075;-62
2022/02/19 03:05:49;;;;;;;10.13;2.53;;;;;;;;;;4980642;28;20122;-62
2022/02/19 03:08:14;;;;;;;9.50;2.40;;;;;;;;;;4986259;28;20120;-64
2022/02/19 03:10:39;;;;;;;12.30;2.63;;;;;;;;;;5001709;28;20097;-64
2022/02/19 03:13:05;;;;;;;11.27;2.23;;;;;;;;;;4993385;28;20353;-64
2022/02/19 03:15:30;;;;;;;8.85;2.10;;;;;;;;;;4997018;28;20536;-65
2022/02/19 03:17:56;;;;;;;8.77;2.27;;;;;;;;;;4988756;28;20078;-64
2022/02/19 03:20:21;;;;;;;8.63;2.10;;;;;;;;;;5001657;28;20106;-62
2022/02/19 03:22:47;;;;;;;9.48;2.35;;;;;;;;;;4996653;28;20361;-63
2022/02/19 03:25:12;;;;;;;7.85;2.22;;;;;;;;;;4994658;28;20177;-62
2022/02/19 03:27:38;;;;;;;8.25;1.80;;;;;;;;;;4997413;28;20522;-63
2022/02/19 03:30:03;;;;;;;11.38;2.38;;;;;;;;;;5001842;28;20157;-63
2022/02/19 03:32:28;;;;;;;11.00;2.13;;;;;;;;;;4998899;28;20099;-65
2022/02/19 03:34:54;;;;;;;9.37;2.03;;;;;;;;;;4991897;28;20082;-65
2022/02/19 03:37:19;;;;;;;6.33;1.73;;;;;;;;;;5000274;28;20349;-63
2022/02/19 03:39:44;;;;;;;9.90;2.13;;;;;;;;;;5000887;28;20090;-64
2022/02/19 03:42:09;;;;;;;10.57;2.37;;;;;;;;;;4995823;28;20346;-64
2022/02/19 03:44:35;;;;;;;5.18;1.80;;;;;;;;;;4988886;28;20414;-62
2022/02/19 03:47:00;;;;;;;10.73;2.30;;;;;;;;;;5001794;28;20479;-64
2022/02/19 03:49:25;;;;;;;6.53;1.70;;;;;;;;;;5001240;28;20186;-63
2022/02/19 03:51:50;;;;;;;9.50;2.40;;;;;;;;;;5001402;28;20092;-64
2022/02/19 03:54:16;;;;;;;17.47;2.50;;;;;;;;;;4988610;28;20381;-65
2022/02/19 03:56:43;;;;;;;10.90;2.50;;;;;;;;;;5001281;28;20570;-62
2022/02/19 03:59:12;;;;;;;12.48;2.88;;;;;;;;;;4988862;28;20079;-64
2022/02/19 04:01:37;;;;;;;12.65;2.60;;;;;;;;;;5004212;28;20101;-61
2022/02/19 04:04:02;;;;;;;13.10;2.73;;;;;;;;;;4987776;28;20182;-64
2022/02/19 04:06:27;;;;;;;9.17;2.10;;;;;;;;;;4993080;28;20201;-62
2022/02/19 04:08:52;;;;;;;7.10;1.70;;;;;;;;;;4994576;28;20387;-64
2022/02/19 04:11:18;;;;;;;6.10;1.60;;;;;;;;;;5000761;28;20790;-62
2022/02/19 04:13:43;;;;;;;4.03;1.70;;;;;;;;;;5001275;28;20094;-61
2022/02/19 04:16:08;;;;;;;6.75;2.10;;;;;;;;;;4997996;28;20342;-64
2022/02/19 04:18:34;;;;;;;31.07;2.87;;;;;;;;;;4990833;28;20443;-60
2022/02/19 04:20:59;;;;;;;14.50;2.80;;;;;;;;;;5000269;28;20122;-62
2022/02/19 04:23:24;;;;;;;10.77;2.70;;;;;;;;;;4992681;28;20071;-63
2022/02/19 04:25:49;;;;;;;13.00;2.73;;;;;;;;;;4996120;28;20724;-64
2022/02/19 04:28:16;;;;;;;11.90;2.80;;;;;;;;;;4999213;28;20506;-62
2022/02/19 04:30:41;;;;;;;7.63;2.00;;;;;;;;;;5001017;28;20097;-63
2022/02/19 04:33:06;;;;;;;9.87;2.30;;;;;;;;;;4994319;28;20099;-64
2022/02/19 04:35:32;;;;;;;10.30;2.30;;;;;;;;;;4992754;28;20671;-64
2022/02/19 04:37:57;;;;;;;7.65;1.50;;;;;;;;;;5000356;28;20678;-64
2022/02/19 04:40:22;;;;;;;11.25;2.42;;;;;;;;;;5000454;28;20597;-65
2022/02/19 04:42:47;;;;;;;7.63;2.00;;;;;;;;;;4990116;28;20126;-64
2022/02/19 04:45:14;;;;;;;9.77;1.97;;;;;;;;;;4989378;28;20106;-64
2022/02/19 04:47:39;;;;;;;9.00;2.28;;;;;;;;;;4998743;28;20551;-64
2022/02/19 04:50:05;;;;;;;11.07;2.30;;;;;;;;;;4988958;28;20085;-63
2022/02/19 04:52:30;;;;;;;7.95;2.13;;;;;;;;;;5000459;28;20109;-63
2022/02/19 04:54:56;;;;;;;8.73;2.50;;;;;;;;;;4987718;28;20286;-62
2022/02/19 04:57:21;;;;;;;6.07;1.63;;;;;;;;;;5000165;28;20094;-65
2022/02/19 04:59:46;;;;;;;12.20;2.03;;;;;;;;;;4991968;28;20135;-65
2022/02/19 05:02:11;;;;;;;7.05;2.45;;;;;;;;;;4989458;28;20067;-65
2022/02/19 05:04:37;;;;;;;6.37;2.07;;;;;;;;;;4997510;28;20086;-64
2022/02/19 05:07:02;;;;;;;7.80;1.60;;;;;;;;;;5000704;28;20117;-64
2022/02/19 05:09:27;;;;;;;8.98;2.20;;;;;;;;;;4998388;28;20102;-65
2022/02/19 05:11:52;;;;;;;6.77;1.63;;;;;;;;;;5000106;28;20113;-65
2022/02/19 05:14:18;;;;;;;7.73;1.90;;;;;;;;;;4989970;28;20328;-65
2022/02/19 05:16:43;;;;;;;5.73;1.70;;;;;;;;;;4992669;28;20342;-64
2022/02/19 05:19:08;;;;;;;6.50;2.07;;;;;;;;;;4992662;28;20585;-64
2022/02/19 05:21:33;;;;;;;8.97;2.53;;;;;;;;;;4999020;28;20760;-65
2022/02/19 05:23:59;;;;;;;11.07;2.53;;;;;;;;;;4988011;28;20329;-63
2022/02/19 05:26:24;;;;;;;9.02;2.17;;;;;;;;;;4999128;28;20306;-62
2022/02/19 05:28:49;;;;;;;8.07;2.20;;;;;;;;;;5008988;28;20109;-63
2022/02/19 05:31:14;;;;;;;8.73;2.60;;;;;;;;;;5006742;28;20317;-65
2022/02/19 05:33:39;;;;;;;6.53;2.10;;;;;;;;;;5002061;28;20094;-64
2022/02/19 05:36:05;;;;;;;12.73;2.60;;;;;;;;;;4994861;28;20487;-64
2022/02/19 05:38:30;;;;;;;9.40;2.37;;;;;;;;;;4998005;28;20074;-64
2022/02/19 05:40:56;;;;;;;6.50;2.17;;;;;;;;;;4996188;28;20890;-63
2022/02/19 05:43:21;;;;;;;9.32;2.30;;;;;;;;;;4985667;28;20409;-62
2022/02/19 05:45:47;;;;;;;10.97;2.43;;;;;;;;;;4996459;28;20142;-65
2022/02/19 05:48:13;;;;;;;8.25;2.38;;;;;;;;;;4996943;28;20559;-62
2022/02/19 05:50:38;;;;;;;9.45;2.42;;;;;;;;;;4994664;28;20095;-63
2022/02/19 05:53:04;;;;;;;7.13;2.10;;;;;;;;;;5002808;28;20192;-62
2022/02/19 05:55:29;;;;;;;5.22;1.63;;;;;;;;;;4996644;28;20280;-62
2022/02/19 05:57:55;;;;;;;12.05;2.60;;;;;;;;;;4997045;28;20105;-62
2022/02/19 06:00:20;;;;;;;9.07;2.57;;;;;;;;;;4995898;28;20464;-62
2022/02/19 06:02:45;;;;;;;7.97;2.30;;;;;;;;;;4997211;28;20562;-60
2022/02/19 06:05:10;;;;;;;6.63;2.03;;;;;;;;;;4983457;28;20106;-64
2022/02/19 06:07:36;;;;;;;10.20;2.25;;;;;;;;;;4994948;28;20120;-62
2022/02/19 06:10:01;;;;;;;8.63;2.30;;;;;;;;;;5011285;28;20077;-63
2022/02/19 06:12:26;;;;;;;9.20;2.37;;;;;;;;;;5009348;28;20113;-64
2022/02/19 06:14:51;;;;;;;11.23;2.38;;;;;;;;;;4994180;28;20636;-64
2022/02/19 06:17:17;;;;;;;8.57;2.50;;;;;;;;;;4990964;28;20094;-64
2022/02/19 06:19:42;;;;;;;10.37;2.90;;;;;;;;;;4990612;28;20078;-63
2022/02/19 06:22:09;;;;;;;8.13;2.00;;;;;;;;;;4989504;28;20362;-65
2022/02/19 06:24:35;;;;;;;8.93;2.05;;;;;;;;;;4995861;28;20572;-61
2022/02/19 06:27:00;;;;;;;9.95;2.15;;;;;;;;;;4997065;28;20337;-65
2022/02/19 06:29:26;;;;;;;11.10;2.80;;;;;;;;;;4997624;28;20113;-61
2022/02/19 06:31:51;;;;;;;11.07;2.80;;;;;;;;;;5003187;28;20384;-62
2022/02/19 06:34:16;;;;;;;11.80;2.57;;;;;;;;;;5003468;28;20086;-63
2022/02/19 06:36:41;;;;;;;9.07;2.17;;;;;;;;;;5007575;28;20133;-64
2022/02/19 06:39:06;;;;;;;5.13;1.80;;;;;;;;;;4994967;28;20336;-64
2022/02/19 06:41:32;;;;;;;9.03;2.40;;;;;;;;;;4979269;28;20575;-62
2022/02/19 06:43:57;;;;;;;8.52;2.15;;;;;;;;;;4976577;28;20323;-64
2022/02/19 06:46:22;;;;;;;6.90;1.90;;;;;;;;;;5010449;28;20108;-63
2022/02/19 06:48:48;;;;;;;7.10;2.00;;;;;;;;;;4988053;28;20809;-63
2022/02/19 06:51:13;;;;;;;9.57;2.33;;;;;;;;;;4977615;28;20319;-64
2022/02/19 06:53:39;;;;;;;11.27;2.43;;;;;;;;;;4976047;28;20411;-63
2022/02/19 06:56:04;;;;;;;13.17;2.37;;;;;;;;;;4970889;28;20474;-62
2022/02/19 06:58:30;;;;;;;12.30;1.87;;;;;;;;;;4979098;28;20322;-64
2022/02/19 07:00:55;;;;;;;9.70;2.30;;;;;;;;;;4970858;28;20099;-64
2022/02/19 07:03:21;;;;;;;9.23;2.65;;;;;;;;;;4973483;28;20090;-64
2022/02/19 07:05:51;;;;;;;16.17;2.63;;;;;;;;;;4973320;28;20111;-62
2022/02/19 07:08:16;;;;;;;7.30;2.22;;;;;;;;;;4973508;28;20099;-63
2022/02/19 07:10:41;;;;;;;15.02;2.75;;;;;;;;;;4999267;28;20152;-62
2022/02/19 07:13:06;;;;;;;6.80;2.27;;;;;;;;;;4980311;28;20145;-62
2022/02/19 07:15:32;;;;;;;13.20;2.30;;;;;;;;;;4976288;28;20129;-63
2022/02/19 07:17:58;;;;;;;14.53;2.67;;;;;;;;;;4966408;28;20170;-62
2022/02/19 07:20:23;;;;;;;14.18;2.85;;;;;;;;;;4963031;28;20110;-65
2022/02/19 07:22:49;;;;;;;10.25;2.30;;;;;;;;;;4977822;28;20316;-63
2022/02/19 07:25:14;;;;;;;12.43;2.90;;;;;;;;;;4988402;28;20602;-63
2022/02/19 07:27:40;;;;;;;5.65;1.58;;;;;;;;;;4995755;28;20089;-62
2022/02/19 07:30:07;;;;;;;10.90;2.67;;;;;;;;;;4990774;28;20563;-62
2022/02/19 07:32:32;;;;;;;9.50;2.33;;;;;;;;;;4979132;28;20107;-64
2022/02/19 07:34:58;;;;;;;13.63;2.70;;;;;;;;;;4972985;28;20089;-63
2022/02/19 07:37:23;;;;;;;9.27;2.50;;;;;;;;;;4984209;28;20380;-64
2022/02/19 07:39:49;;;;;;;8.03;1.73;;;;;;;;;;4995725;28;20153;-61
2022/02/19 07:42:14;;;;;;;9.20;2.40;;;;;;;;;;4986366;28;20089;-63
2022/02/19 07:44:39;;;;;;;9.10;2.50;;;;;;;;;;4981231;28;20094;-64
2022/02/19 07:47:04;;;;;;;10.03;2.43;;;;;;;;;;4990694;28;20316;-65
2022/02/19 08:00:25;;;;;;;8.68;2.42;;;;;;;;;;4986791;28;20310;-62
2022/02/19 08:02:50;;;;;;;9.23;2.10;;;;;;;;;;4995880;28;20558;-62
2022/02/19 08:05:16;;;;;;;5.60;1.83;;;;;;;;;;4996271;28;20349;-62
2022/02/19 08:07:41;;;;;;;9.90;2.10;;;;;;;;;;4985389;28;20195;-63
2022/02/19 08:10:06;;;;;;;10.87;2.80;;;;;;;;;;4994844;28;20071;-64
2022/02/19 08:12:32;;;;;;;13.45;2.80;;;;;;;;;;4995941;28;20593;-65
2022/02/19 08:14:57;;;;;;;8.90;2.00;;;;;;;;;;4996812;28;20455;-61
2022/02/19 08:17:23;;;;;;;17.30;3.10;;;;;;;;;;4994284;28;20156;-61
2022/02/19 08:19:49;;;;;;;8.38;1.73;;;;;;;;;;5001406;28;20902;-63
2022/02/19 08:22:14;;;;;;;12.65;2.60;;;;;;;;;;5001822;28;20110;-64
2022/02/19 08:24:39;;;;;;;12.57;2.20;;;;;;;;;;4996274;28;21037;-63
2022/02/19 08:27:05;;;;;;;7.60;2.20;;;;;;;;;;4994786;28;20623;-63
2022/02/19 08:29:30;;;;;;;9.95;2.08;;;;;;;;;;4997894;28;20181;-64
2022/02/19 08:31:55;;;;;;;11.00;2.50;;;;;;;;;;5004862;28;20525;-64
2022/02/19 08:34:20;;;;;;;9.90;2.67;;;;;;;;;;4994299;28;20461;-63
2022/02/19 08:36:46;;;;;;;11.30;2.65;;;;;;;;;;4990068;28;20133;-61
2022/02/19 08:39:11;;;;;;;13.07;2.60;;;;;;;;;;4995890;28;20475;-62
2022/02/19 08:41:36;;;;;;;9.53;2.27;;;;;;;;;;4993260;28;20555;-64
2022/02/19 08:44:01;;;;;;;6.40;1.53;;;;;;;;;;4994248;28;20109;-63
2022/02/19 08:46:26;;;;;;;9.23;2.20;;;;;;;;;;4996155;28;20079;-63
2022/02/19 08:48:52;;;;;;;10.70;2.60;;;;;;;;;;5004598;28;20105;-65
2022/02/19 08:51:17;;;;;;;8.00;2.40;;;;;;;;;;5000497;28;20090;-62
2022/02/19 08:53:42;;;;;;;10.63;2.23;;;;;;;;;;5003678;28;20108;-61
2022/02/19 08:56:07;;;;;;;13.40;2.80;;;;;;;;;;5001881;28;20153;-62
2022/02/19 08:58:32;;;;;;;10.93;2.33;;;;;;;;;;4999703;28;20367;-64
2022/02/19 09:00:58;;;;;;;8.93;2.37;;;;;;;;;;4997914;28;20178;-56
2022/02/19 09:03:23;;;;;;;9.68;2.67;;;;;;;;;;5010478;28;20229;-59
2022/02/19 09:05:49;;;;;;;12.52;2.75;;;;;;;;;;4994234;28;20575;-68
2022/02/19 09:08:14;;;;;;;9.93;2.60;;;;;;;;;;5009956;28;20109;-69
2022/02/19 09:10:39;;;;;;;10.43;2.63;;;;;;;;;;4987306;28;20079;-70
2022/02/19 09:13:05;;;;;;;10.57;2.10;;;;;;;;;;4993017;28;20106;-70
2022/02/19 09:15:30;;;;;;;8.77;2.70;;;;;;;;;;4984500;28;20229;-71
2022/02/19 09:17:55;;;;;;;8.85;2.15;;;;;;;;;;4988201;28;20341;-70
2022/02/19 09:20:21;;;;;;;12.63;2.83;;;;;;;;;;4986775;28;20121;-70
2022/02/19 09:22:47;;;;;;;8.95;1.88;;;;;;;;;;4993755;28;20388;-71
2022/02/19 09:25:12;;;;;;;11.25;2.47;;;;;;;;;;4993477;28;20101;-70
2022/02/19 09:27:38;;;;;;;7.13;1.90;;;;;;;;;;4987259;28;20070;-70
2022/02/19 09:30:03;;;;;;;7.18;2.03;;;;;;;;;;5000008;28;20345;-70
2022/02/19 09:32:28;;;;;;;13.55;2.75;;;;;;;;;;4980233;28;20099;-71
2022/02/19 09:34:54;;;;;;;11.53;2.50;;;;;;;;;;4993925;28;20542;-70
2022/02/19 09:37:20;;;;;;;12.00;2.63;;;;;;;;;;4986609;28;20643;-71
2022/02/19 09:39:45;;;;;;;12.43;2.75;;;;;;;;;;5000050;28;20077;-70
2022/02/19 09:42:10;;;;;;;10.07;2.53;;;;;;;;;;4985673;28;20562;-70
2022/02/19 09:44:36;;;;;;;6.63;1.85;;;;;;;;;;4987062;28;20109;-70
2022/02/19 09:47:01;;;;;;;17.77;2.63;;;;;;;;;;4993256;28;20196;-71
2022/02/19 09:49:26;;;;;;;12.40;2.30;;;;;;;;;;4993279;28;20094;-71
2022/02/19 09:51:53;;;;;;;9.10;2.23;;;;;;;;;;4986651;28;20509;-71
2022/02/19 09:54:18;;;;;;;8.68;2.10;;;;;;;;;;4985508;28;20347;-70
2022/02/19 09:56:43;;;;;;;7.53;2.00;;;;;;;;;;4993242;28;20095;-72
2022/02/19 09:59:12;;;;;;;10.00;2.87;;;;;;;;;;4993528;28;20103;-70
2022/02/19 10:01:37;;;;;;;6.65;1.75;;;;;;;;;;4984194;28;20364;-70
2022/02/19 10:04:03;;;;;;;9.40;2.37;;;;;;;;;;4993316;28;20110;-71
2022/02/19 10:06:29;;;;;;;7.47;2.15;;;;;;;;;;4986514;28;20160;-68
2022/02/19 10:09:10;;;;;;;3.22;1.38;;;;;;;;;;4988809;28;20134;-70
2022/02/19 10:11:35;;;;;;;9.43;2.30;;;;;;;;;;4991666;28;20613;-70
2022/02/19 10:14:02;;;;;;;9.73;2.17;;;;;;;;;;4994812;28;20066;-71
2022/02/19 10:16:29;;;;;;;8.85;2.33;;;;;;;;;;4987736;28;20407;-69
2022/02/19 10:18:54;;;;;;;7.63;2.15;;;;;;;;;;4996524;28;20174;-72
2022/02/19 10:21:24;;;;;;;14.43;2.87;;;;;;;;;;4989560;28;20197;-71
2022/02/19 10:23:58;;;;;;;5.03;1.50;;;;;;;;;;4990360;28;20075;-68
2022/02/19 10:26:35;;;;;;;9.40;2.17;;;;;;;;;;4991107;28;20566;-69
2022/02/19 10:29:00;;;;;;;8.52;2.00;;;;;;;;;;4989549;28;20185;-70
2022/02/19 10:31:26;;;;;;;10.35;2.25;;;;;;;;;;4995306;28;20663;-70
2022/02/19 10:34:02;;;;;;;4.37;1.33;;;;;;;;;;4996225;28;20122;-70
2022/02/19 10:36:28;;;;;;;4.47;1.65;;;;;;;;;;4993580;28;20384;-69
2022/02/19 10:38:57;;;;;;;3.93;1.40;;;;;;;;;;4996724;28;20152;-69
2022/02/19 10:41:32;;;;;;;7.53;2.10;;;;;;;;;;4992455;28;20769;-72
2022/02/19 10:43:57;;;;;;;6.47;1.77;;;;;;;;;;4996550;28;20096;-71
2022/02/19 10:46:27;;;;;;;1.90;1.20;;;;;;;;;;4993710;28;20144;-70
2022/02/19 10:48:52;;;;;;;;;;;;;;;;;;4990132;28;20264;-69
2022/02/19 10:51:20;;;;;;;6.65;1.90;;;;;;;;;;4991187;28;19966;-70
2022/02/19 10:53:56;;;;;;;4.57;1.77;;;;;;;;;;4996329;28;20293;-71
2022/02/19 10:56:21;;;;;;;8.15;1.88;;;;;;;;;;4996132;28;20516;-70
2022/02/19 10:58:59;;;;;;;4.83;1.50;;;;;;;;;;4989963;28;20105;-69
2022/02/19 11:01:24;;;;;;;5.38;1.55;;;;;;;;;;4995353;28;20349;-70
2022/02/19 11:03:49;;;;;;;6.70;1.70;;;;;;;;;;4990526;28;20168;-69
2022/02/19 11:06:15;;;;;;;11.10;2.97;;;;;;;;;;4990559;28;20082;-70
2022/02/19 11:08:41;;;;;;;11.07;1.88;;;;;;;;;;4993098;28;20355;-70
2022/02/19 11:11:06;;;;;;;8.38;2.10;;;;;;;;;;4994485;28;20166;-70
2022/02/19 11:13:32;;;;;;;5.90;1.90;;;;;;;;;;4991911;28;20189;-71
2022/02/19 11:15:57;;;;;;;5.55;1.80;;;;;;;;;;4991100;28;20126;-70
2022/02/19 11:18:22;;;;;;;6.77;1.30;;;;;;;;;;4991986;28;20473;-70
2022/02/19 11:20:48;;;;;;;6.50;1.73;;;;;;;;;;4988700;28;20123;-70
2022/02/19 11:23:13;;;;;;;2.92;1.30;;;;;;;;;;4993458;28;20531;-70
2022/02/19 11:25:39;;;;;;;3.28;1.40;;;;;;;;;;4993295;28;20142;-70
2022/02/19 11:28:08;;;;;;;5.97;1.75;;;;;;;;;;4990810;28;20094;-70
2022/02/19 11:30:34;;;;;;;7.53;1.77;;;;;;;;;;4989142;28;20078;-70
2022/02/19 11:32:59;;;;;;;4.07;1.70;;;;;;;;;;4993019;28;20106;-70
2022/02/19 11:35:34;;;;;;;7.90;1.97;;;;;;;;;;4994399;28;20074;-71
2022/02/19 11:38:00;;;;;;;5.13;1.40;;;;;;;;;;4992457;28;20109;-71
2022/02/19 11:40:25;;;;;;;9.90;1.83;;;;;;;;;;4996966;28;20101;-71
2022/02/19 11:42:51;;;;;;;1.95;1.30;;;;;;;;;;4992696;28;20451;-71
2022/02/19 11:45:17;;;;;;;3.75;1.15;;;;;;;;;;4987918;28;20102;-71
2022/02/19 11:47:42;;;;;;;7.15;1.50;;;;;;;;;;4991803;28;20062;-71
2022/02/19 11:50:26;;;;;;;2.37;0.93;;;;;;;;;;4995258;28;20528;-71
2022/02/19 11:53:09;;;;;;;3.08;1.25;;;;;;;;;;4994407;28;20380;-70
2022/02/19 11:55:38;;;;;;;3.60;1.60;;;;;;;;;;4993384;28;20626;-71
2022/02/19 11:58:03;;;;;;;3.08;1.00;;;;;;;;;;4995108;28;20105;-71
2022/02/19 12:00:48;;;;;;;4.67;1.70;;;;;;;;;;4990186;28;20106;-71
2022/02/19 12:03:20;;;;;;;6.40;1.60;;;;;;;;;;4986826;28;20121;-70
2022/02/19 12:06:03;;;;;;;4.45;1.30;;;;;;;;;;4988848;28;20578;-72
2022/02/19 12:08:53;;;;;;;3.45;1.27;;;;;;;;;;4982002;28;20667;-70
2022/02/19 12:11:19;;;;;;;5.43;1.55;;;;;;;;;;4994977;28;20078;-70
2022/02/19 12:13:47;;;;;;;5.68;1.52;;;;;;;;;;4992274;28;20106;-71
2022/02/19 12:16:28;;;;;;;7.47;1.60;;;;;;;;;;4988694;28;20126;-71
2022/02/19 12:18:54;;;;;;;6.75;1.67;;;;;;;;;;4994701;28;20066;-71
2022/02/19 12:21:38;;;;;;;5.95;1.40;;;;;;;;;;4987591;28;20158;-71
2022/02/19 12:24:13;;;;;;;3.22;1.13;;;;;;;;;;4987583;28;20090;-71
2022/02/19 12:29:41;;;;;;;5.25;1.63;;;;;;;;;;4994527;28;20161;-70
2022/02/19 12:32:06;;;;;;;5.03;1.50;;;;;;;;;;4994248;28;20392;-71
2022/02/19 12:34:32;;;;;;;7.53;1.63;;;;;;;;;;4989398;28;20146;-70
2022/02/19 12:36:58;;;;;;;3.22;1.50;;;;;;;;;;4987115;28;20339;-71
2022/02/19 12:39:23;;;;;;;5.50;1.80;;;;;;;;;;4999882;28;20066;-70
2022/02/19 12:41:49;;;;;;;3.73;1.63;;;;;;;;;;4987254;28;20152;-71
2022/02/19 12:44:17;;;;;;;6.18;1.75;;;;;;;;;;4993589;28;20091;-71
2022/02/19 12:46:42;;;;;;;3.30;1.35;;;;;;;;;;4993838;28;20815;-71
2022/02/19 12:49:08;;;;;;;5.77;1.90;;;;;;;;;;4999118;28;20414;-70
2022/02/19 12:51:34;;;;;;;4.90;1.55;;;;;;;;;;4999057;28;20335;-70
2022/02/19 12:53:59;;;;;;;10.13;1.83;;;;;;;;;;5000662;28;20660;-70
2022/02/19 12:56:28;;;;;;;9.73;2.17;;;;;;;;;;4999012;28;20498;-70
2022/02/19 12:58:53;;;;;;;5.18;1.52;;;;;;;;;;4999580;28;20185;-71
2022/02/19 13:01:18;;;;;;;5.93;1.50;;;;;;;;;;4999924;28;20212;-71
2022/02/19 13:03:47;;;;;;;3.43;1.60;;;;;;;;;;4998738;28;20096;-70
2022/02/19 13:06:12;;;;;;;5.28;1.50;;;;;;;;;;5000064;28;20464;-70
2022/02/19 13:08:37;;;;;;;5.10;1.50;;;;;;;;;;4991423;28;20102;-71
2022/02/19 13:11:02;;;;;;;8.75;1.65;;;;;;;;;;4992430;28;20524;-71
2022/02/19 13:13:28;;;;;;;9.23;2.27;;;;;;;;;;4987879;28;20110;-70
2022/02/19 13:15:56;;;;;;;8.53;2.33;;;;;;;;;;4990534;28;20078;-70
2022/02/19 13:18:21;;;;;;;6.78;1.92;;;;;;;;;;4989125;28;20734;-72
2022/02/19 13:20:46;;;;;;;5.60;1.77;;;;;;;;;;4986815;28;20114;-71
2022/02/19 13:23:11;;;;;;;6.43;1.63;;;;;;;;;;4992415;28;20070;-70
2022/02/19 13:25:37;;;;;;;4.37;1.40;;;;;;;;;;4993394;28;20117;-69
2022/02/19 13:28:06;;;;;;;5.77;1.57;;;;;;;;;;4988528;28;20102;-70
2022/02/19 13:30:31;;;;;;;7.57;2.08;;;;;;;;;;4987262;28;20524;-70
2022/02/19 13:32:56;;;;;;;6.13;2.13;;;;;;;;;;4992001;28;20109;-71
2022/02/19 13:35:33;;;;;;;11.20;2.17;;;;;;;;;;4993900;28;20481;-70
2022/02/19 13:37:58;;;;;;;7.90;1.83;;;;;;;;;;4990361;28;20542;-70
2022/02/19 13:40:31;;;;;;;5.65;1.45;;;;;;;;;;4995769;28;20126;-71
2022/02/19 13:43:10;;;;;;;5.63;1.77;;;;;;;;;;4990863;28;20067;-70
2022/02/19 13:45:42;;;;;;;;;;;;;;;;;;5000442;28;20102;-70
2022/02/19 13:48:07;;;;;;;4.93;1.40;;;;;;;;;;5000083;28;19986;-71
2022/02/19 13:50:34;;;;;;;5.45;1.38;;;;;;;;;;5003731;28;20079;-70
2022/02/19 13:53:03;;;;;;;4.47;1.33;;;;;;;;;;5003360;28;20631;-70
2022/02/19 13:55:28;;;;;;;;;;;;;;;;;;5004078;28;20312;-71
2022/02/19 13:57:53;;;;;;;6.57;1.95;;;;;;;;;;5003707;28;20044;-71
2022/02/19 14:00:18;;;;;;;6.10;1.83;;;;;;;;;;5002675;28;20527;-71
2022/02/19 14:02:44;;;;;;;4.80;1.42;;;;;;;;;;5003789;28;20084;-71
2022/02/19 14:05:10;;;;;;;5.32;1.70;;;;;;;;;;5003098;28;20376;-71
2022/02/19 14:07:51;;;;;;;9.23;1.70;;;;;;;;;;5002071;28;20582;-71
2022/02/19 14:10:16;;;;;;;5.80;1.80;;;;;;;;;;4992765;28;20078;-71
2022/02/19 14:12:44;;;;;;;5.15;1.73;;;;;;;;;;4989413;28;20511;-70
2022/02/19 14:15:14;;;;;;;7.05;1.50;;;;;;;;;;4995366;28;20106;-71
2022/02/19 14:17:40;;;;;;;6.70;1.92;;;;;;;;;;4990381;28;20459;-71
2022/02/19 14:20:10;;;;;;;6.25;1.33;;;;;;;;;;4993738;28;20095;-71
2022/02/19 14:22:41;;;;;;;4.25;1.50;;;;;;;;;;4996492;28;20527;-70
2022/02/19 14:25:07;;;;;;;7.13;2.30;;;;;;;;;;4993838;28;20120;-72
2022/02/19 14:27:51;;;;;;;6.70;1.75;;;;;;;;;;4989610;28;20101;-71
2022/02/19 14:30:17;;;;;;;8.60;2.25;;;;;;;;;;4990093;28;20558;-71
2022/02/19 14:32:43;;;;;;;6.68;1.73;;;;;;;;;;4996890;28;20141;-71
2022/02/19 14:35:08;;;;;;;5.50;1.80;;;;;;;;;;4996774;28;20066;-71
2022/02/19 14:37:33;;;;;;;6.70;2.13;;;;;;;;;;4988999;28;20103;-71
2022/02/19 14:39:59;;;;;;;3.80;1.37;;;;;;;;;;5002662;28;20094;-72
2022/02/19 14:42:24;;;;;;;3.70;1.50;;;;;;;;;;4989574;28;20312;-69
2022/02/19 14:44:49;;;;;;;3.77;1.47;;;;;;;;;;4989799;28;20105;-70
2022/02/19 14:47:14;;;;;;;4.72;1.42;;;;;;;;;;4996703;28;20735;-71
2022/02/19 14:49:42;;;;;;;6.50;2.57;;;;;;;;;;4995246;28;20156;-70